sensor_id;sensor_type;location;lat;lon;timestamp;P1;durP1;ratioP1;P2;durP2;ratioP2
9330;SDS011;4704;50.470;12.072;2024-03-23T00:54:37;2.45;;;2.13;;
9330;SDS011;4704;50.470;12.072;2024-03-23T00:57:04;2.78;;;2.10;;
9330;SDS011;4704;50.470;12.072;2024-03-23T00:59:31;2.38;;;2.10;;
9330;SDS011;4704;50.470;12.072;2024-03-23T01:01:58;1.92;;;1.70;;
9330;SDS011;4704;50.470;12.072;2024-03-23T01:04:25;2.08;;;1.65;;
9330;SDS011;4704;50.470;12.072;2024-03-23T01:06:53;2.20;;;2.00;;
9330;SDS011;4704;50.470;12.072;2024-03-23T01:09:19;2.28;;;1.95;;
9330;SDS011;4704;50.470;12.072;2024-03-23T01:11:49;1.75;;;1.65;;
9330;SDS011;4704;50.470;12.072;2024-03-23T01:14:16;2.38;;;1.88;;
9330;SDS011;4704;50.470;12.072;2024-03-23T01:16:43;2.08;;;1.83;;
9330;SDS011;4704;50.470;12.072;2024-03-23T01:19:10;2.53;;;1.92;;
9330;SDS011;4704;50.470;12.072;2024-03-23T01:21:37;2.20;;;1.83;;
9330;SDS011;4704;50.470;12.072;2024-03-23T01:24:04;2.25;;;1.90;;
9330;SDS011;4704;50.470;12.072;2024-03-23T01:26:32;1.90;;;1.60;;
9330;SDS011;4704;50.470;12.072;2024-03-23T01:28:59;1.73;;;1.63;;
9330;SDS011;4704;50.470;12.072;2024-03-23T01:31:27;2.10;;;1.90;;
9330;SDS011;4704;50.470;12.072;2024-03-23T01:33:54;2.28;;;1.88;;
9330;SDS011;4704;50.470;12.072;2024-03-23T01:36:22;1.95;;;1.85;;
9330;SDS011;4704;50.470;12.072;2024-03-23T01:38:48;1.90;;;1.60;;
9330;SDS011;4704;50.470;12.072;2024-03-23T01:41:17;2.00;;;1.77;;
9330;SDS011;4704;50.470;12.072;2024-03-23T01:43:43;2.47;;;1.85;;
9330;SDS011;4704;50.470;12.072;2024-03-23T01:46:13;2.05;;;1.85;;
9330;SDS011;4704;50.470;12.072;2024-03-23T01:48:40;1.90;;;1.70;;
9330;SDS011;4704;50.470;12.072;2024-03-23T01:51:07;2.38;;;1.83;;
9330;SDS011;4704;50.470;12.072;2024-03-23T01:53:34;1.95;;;1.75;;
9330;SDS011;4704;50.470;12.072;2024-03-23T01:56:03;1.55;;;1.45;;
9330;SDS011;4704;50.470;12.072;2024-03-23T01:58:30;1.90;;;1.58;;
9330;SDS011;4704;50.470;12.072;2024-03-23T02:00:57;1.67;;;1.58;;
9330;SDS011;4704;50.470;12.072;2024-03-23T02:03:26;1.52;;;1.42;;
9330;SDS011;4704;50.470;12.072;2024-03-23T02:05:54;2.33;;;1.70;;
9330;SDS011;4704;50.470;12.072;2024-03-23T02:08:21;1.52;;;1.42;;
9330;SDS011;4704;50.470;12.072;2024-03-23T02:10:48;1.92;;;1.70;;
9330;SDS011;4704;50.470;12.072;2024-03-23T02:13:15;1.88;;;1.67;;
9330;SDS011;4704;50.470;12.072;2024-03-23T02:15:43;1.40;;;1.20;;
9330;SDS011;4704;50.470;12.072;2024-03-23T02:18:10;1.90;;;1.65;;
9330;SDS011;4704;50.470;12.072;2024-03-23T02:20:39;1.50;;;1.40;;
9330;SDS011;4704;50.470;12.072;2024-03-23T02:23:10;1.70;;;1.55;;
9330;SDS011;4704;50.470;12.072;2024-03-23T02:25:39;2.00;;;1.80;;
9330;SDS011;4704;50.470;12.072;2024-03-23T02:28:06;1.50;;;1.40;;
9330;SDS011;4704;50.470;12.072;2024-03-23T02:30:34;2.08;;;1.88;;
9330;SDS011;4704;50.470;12.072;2024-03-23T02:33:00;1.73;;;1.50;;
9330;SDS011;4704;50.470;12.072;2024-03-23T02:35:28;1.58;;;1.48;;
9330;SDS011;4704;50.470;12.072;2024-03-23T02:37:54;1.75;;;1.65;;
9330;SDS011;4704;50.470;12.072;2024-03-23T02:40:24;1.40;;;1.30;;
9330;SDS011;4704;50.470;12.072;2024-03-23T02:42:50;1.73;;;1.63;;
9330;SDS011;4704;50.470;12.072;2024-03-23T02:45:18;1.70;;;1.60;;
9330;SDS011;4704;50.470;12.072;2024-03-23T02:47:44;1.60;;;1.50;;
9330;SDS011;4704;50.470;12.072;2024-03-23T02:50:12;1.70;;;1.60;;
9330;SDS011;4704;50.470;12.072;2024-03-23T02:52:40;1.85;;;1.73;;
9330;SDS011;4704;50.470;12.072;2024-03-23T02:55:08;1.67;;;1.35;;
9330;SDS011;4704;50.470;12.072;2024-03-23T02:57:36;1.70;;;1.60;;
9330;SDS011;4704;50.470;12.072;2024-03-23T03:00:04;1.50;;;1.40;;
9330;SDS011;4704;50.470;12.072;2024-03-23T03:02:32;1.65;;;1.52;;
9330;SDS011;4704;50.470;12.072;2024-03-23T03:04:59;1.50;;;1.40;;
9330;SDS011;4704;50.470;12.072;2024-03-23T03:07:26;1.80;;;1.70;;
9330;SDS011;4704;50.470;12.072;2024-03-23T03:09:53;1.70;;;1.60;;
9330;SDS011;4704;50.470;12.072;2024-03-23T03:12:20;1.52;;;1.42;;
9330;SDS011;4704;50.470;12.072;2024-03-23T03:14:49;1.60;;;1.50;;
9330;SDS011;4704;50.470;12.072;2024-03-23T03:17:16;1.80;;;1.70;;
9330;SDS011;4704;50.470;12.072;2024-03-23T03:19:44;1.50;;;1.40;;
9330;SDS011;4704;50.470;12.072;2024-03-23T03:22:11;1.35;;;1.25;;
9330;SDS011;4704;50.470;12.072;2024-03-23T03:24:38;1.70;;;1.60;;
9330;SDS011;4704;50.470;12.072;2024-03-23T03:27:05;1.50;;;1.40;;
9330;SDS011;4704;50.470;12.072;2024-03-23T03:29:33;1.60;;;1.50;;
9330;SDS011;4704;50.470;12.072;2024-03-23T03:32:03;1.90;;;1.52;;
9330;SDS011;4704;50.470;12.072;2024-03-23T03:34:30;1.48;;;1.38;;
9330;SDS011;4704;50.470;12.072;2024-03-23T03:36:57;1.58;;;1.48;;
9330;SDS011;4704;50.470;12.072;2024-03-23T03:39:25;1.60;;;1.50;;
9330;SDS011;4704;50.470;12.072;2024-03-23T03:41:51;1.52;;;1.42;;
9330;SDS011;4704;50.470;12.072;2024-03-23T03:44:19;1.63;;;1.52;;
9330;SDS011;4704;50.470;12.072;2024-03-23T03:46:45;1.50;;;1.40;;
9330;SDS011;4704;50.470;12.072;2024-03-23T03:49:14;1.60;;;1.50;;
9330;SDS011;4704;50.470;12.072;2024-03-23T03:51:41;1.50;;;1.40;;
9330;SDS011;4704;50.470;12.072;2024-03-23T03:54:08;1.45;;;1.35;;
9330;SDS011;4704;50.470;12.072;2024-03-23T03:56:35;1.50;;;1.40;;
9330;SDS011;4704;50.470;12.072;2024-03-23T03:59:02;1.65;;;1.55;;
9330;SDS011;4704;50.470;12.072;2024-03-23T04:01:29;1.30;;;1.20;;
9330;SDS011;4704;50.470;12.072;2024-03-23T04:03:56;1.38;;;1.27;;
9330;SDS011;4704;50.470;12.072;2024-03-23T04:06:25;1.40;;;1.30;;
9330;SDS011;4704;50.470;12.072;2024-03-23T04:08:52;1.30;;;1.20;;
9330;SDS011;4704;50.470;12.072;2024-03-23T04:11:19;1.30;;;1.20;;
9330;SDS011;4704;50.470;12.072;2024-03-23T04:13:46;1.13;;;1.13;;
9330;SDS011;4704;50.470;12.072;2024-03-23T04:16:13;1.55;;;1.45;;
9330;SDS011;4704;50.470;12.072;2024-03-23T04:18:40;1.20;;;1.10;;
9330;SDS011;4704;50.470;12.072;2024-03-23T04:21:07;1.83;;;1.73;;
9330;SDS011;4704;50.470;12.072;2024-03-23T04:23:35;1.50;;;1.40;;
9330;SDS011;4704;50.470;12.072;2024-03-23T04:26:03;1.48;;;1.38;;
9330;SDS011;4704;50.470;12.072;2024-03-23T04:28:30;1.38;;;1.27;;
9330;SDS011;4704;50.470;12.072;2024-03-23T04:30:56;1.70;;;1.60;;
9330;SDS011;4704;50.470;12.072;2024-03-23T04:33:24;1.55;;;1.45;;
9330;SDS011;4704;50.470;12.072;2024-03-23T04:35:50;1.27;;;1.17;;
9330;SDS011;4704;50.470;12.072;2024-03-23T04:38:17;1.30;;;1.20;;
9330;SDS011;4704;50.470;12.072;2024-03-23T04:40:47;1.00;;;1.00;;
9330;SDS011;4704;50.470;12.072;2024-03-23T04:43:20;1.40;;;1.30;;
9330;SDS011;4704;50.470;12.072;2024-03-23T04:45:47;1.40;;;1.30;;
9330;SDS011;4704;50.470;12.072;2024-03-23T04:48:15;1.38;;;1.27;;
9330;SDS011;4704;50.470;12.072;2024-03-23T04:50:41;1.27;;;1.17;;
9330;SDS011;4704;50.470;12.072;2024-03-23T04:53:09;1.50;;;1.40;;
9330;SDS011;4704;50.470;12.072;2024-03-23T04:55:36;1.50;;;1.40;;
9330;SDS011;4704;50.470;12.072;2024-03-23T04:58:05;1.30;;;1.20;;
9330;SDS011;4704;50.470;12.072;2024-03-23T05:00:31;1.50;;;1.23;;
9330;SDS011;4704;50.470;12.072;2024-03-23T05:02:59;1.33;;;1.23;;
9330;SDS011;4704;50.470;12.072;2024-03-23T05:05:25;1.40;;;1.30;;
9330;SDS011;4704;50.470;12.072;2024-03-23T05:07:53;1.30;;;1.20;;
9330;SDS011;4704;50.470;12.072;2024-03-23T05:10:19;1.35;;;1.25;;
9330;SDS011;4704;50.470;12.072;2024-03-23T05:12:46;1.55;;;1.25;;
9330;SDS011;4704;50.470;12.072;2024-03-23T05:15:14;1.30;;;1.20;;
9330;SDS011;4704;50.470;12.072;2024-03-23T05:17:42;1.30;;;1.20;;
9330;SDS011;4704;50.470;12.072;2024-03-23T05:20:08;1.50;;;1.40;;
9330;SDS011;4704;50.470;12.072;2024-03-23T05:22:37;1.50;;;1.40;;
9330;SDS011;4704;50.470;12.072;2024-03-23T05:25:04;1.27;;;1.17;;
9330;SDS011;4704;50.470;12.072;2024-03-23T05:27:33;1.45;;;1.35;;
9330;SDS011;4704;50.470;12.072;2024-03-23T05:29:59;1.13;;;1.02;;
9330;SDS011;4704;50.470;12.072;2024-03-23T05:32:28;1.30;;;1.20;;
9330;SDS011;4704;50.470;12.072;2024-03-23T05:34:54;1.08;;;1.05;;
9330;SDS011;4704;50.470;12.072;2024-03-23T05:37:22;1.20;;;1.10;;
9330;SDS011;4704;50.470;12.072;2024-03-23T05:39:48;1.10;;;1.10;;
9330;SDS011;4704;50.470;12.072;2024-03-23T05:42:16;1.40;;;1.30;;
9330;SDS011;4704;50.470;12.072;2024-03-23T05:44:43;1.25;;;1.15;;
9330;SDS011;4704;50.470;12.072;2024-03-23T05:47:10;1.30;;;1.20;;
9330;SDS011;4704;50.470;12.072;2024-03-23T05:49:39;1.30;;;1.20;;
9330;SDS011;4704;50.470;12.072;2024-03-23T05:52:07;1.50;;;1.40;;
9330;SDS011;4704;50.470;12.072;2024-03-23T05:54:34;1.40;;;1.30;;
9330;SDS011;4704;50.470;12.072;2024-03-23T05:57:02;1.45;;;1.35;;
9330;SDS011;4704;50.470;12.072;2024-03-23T05:59:28;1.45;;;1.35;;
9330;SDS011;4704;50.470;12.072;2024-03-23T06:01:56;1.25;;;1.17;;
9330;SDS011;4704;50.470;12.072;2024-03-23T06:04:22;1.30;;;1.20;;
9330;SDS011;4704;50.470;12.072;2024-03-23T06:06:51;1.30;;;1.20;;
9330;SDS011;4704;50.470;12.072;2024-03-23T06:09:18;1.50;;;1.40;;
9330;SDS011;4704;50.470;12.072;2024-03-23T06:11:45;1.30;;;1.20;;
9330;SDS011;4704;50.470;12.072;2024-03-23T06:14:12;1.70;;;1.60;;
9330;SDS011;4704;50.470;12.072;2024-03-23T06:16:39;1.20;;;1.10;;
9330;SDS011;4704;50.470;12.072;2024-03-23T06:19:05;1.48;;;1.38;;
9330;SDS011;4704;50.470;12.072;2024-03-23T06:21:33;1.30;;;1.20;;
9330;SDS011;4704;50.470;12.072;2024-03-23T06:24:01;1.40;;;1.30;;
9330;SDS011;4704;50.470;12.072;2024-03-23T06:26:28;1.33;;;1.23;;
9330;SDS011;4704;50.470;12.072;2024-03-23T06:28:54;1.38;;;1.27;;
9330;SDS011;4704;50.470;12.072;2024-03-23T06:31:22;1.60;;;1.50;;
9330;SDS011;4704;50.470;12.072;2024-03-23T06:33:48;1.58;;;1.48;;
9330;SDS011;4704;50.470;12.072;2024-03-23T06:36:15;1.45;;;1.27;;
9330;SDS011;4704;50.470;12.072;2024-03-23T06:38:42;1.40;;;1.30;;
9330;SDS011;4704;50.470;12.072;2024-03-23T06:41:10;1.42;;;1.33;;
9330;SDS011;4704;50.470;12.072;2024-03-23T06:43:37;1.50;;;1.30;;
9330;SDS011;4704;50.470;12.072;2024-03-23T06:46:04;1.27;;;1.20;;
9330;SDS011;4704;50.470;12.072;2024-03-23T06:48:31;1.45;;;1.35;;
9330;SDS011;4704;50.470;12.072;2024-03-23T06:50:59;1.40;;;1.30;;
9330;SDS011;4704;50.470;12.072;2024-03-23T06:53:25;1.23;;;1.13;;
9330;SDS011;4704;50.470;12.072;2024-03-23T06:55:52;1.60;;;1.40;;
9330;SDS011;4704;50.470;12.072;2024-03-23T06:58:21;2.40;;;1.60;;
9330;SDS011;4704;50.470;12.072;2024-03-23T07:00:48;1.73;;;1.35;;
9330;SDS011;4704;50.470;12.072;2024-03-23T07:03:15;1.50;;;1.40;;
9330;SDS011;4704;50.470;12.072;2024-03-23T07:05:42;1.42;;;1.33;;
9330;SDS011;4704;50.470;12.072;2024-03-23T07:08:08;2.28;;;1.50;;
9330;SDS011;4704;50.470;12.072;2024-03-23T07:10:38;1.60;;;1.48;;
9330;SDS011;4704;50.470;12.072;2024-03-23T07:13:05;1.60;;;1.50;;
9330;SDS011;4704;50.470;12.072;2024-03-23T07:15:33;2.42;;;1.60;;
9330;SDS011;4704;50.470;12.072;2024-03-23T07:18:00;1.83;;;1.60;;
9330;SDS011;4704;50.470;12.072;2024-03-23T07:20:28;1.60;;;1.50;;
9330;SDS011;4704;50.470;12.072;2024-03-23T07:22:55;2.40;;;1.60;;
9330;SDS011;4704;50.470;12.072;2024-03-23T07:25:23;1.60;;;1.50;;
9330;SDS011;4704;50.470;12.072;2024-03-23T07:27:50;1.65;;;1.55;;
9330;SDS011;4704;50.470;12.072;2024-03-23T07:30:17;1.55;;;1.45;;
9330;SDS011;4704;50.470;12.072;2024-03-23T07:32:46;1.58;;;1.48;;
9330;SDS011;4704;50.470;12.072;2024-03-23T07:35:13;1.80;;;1.70;;
9330;SDS011;4704;50.470;12.072;2024-03-23T07:37:40;1.80;;;1.70;;
9330;SDS011;4704;50.470;12.072;2024-03-23T07:40:08;1.85;;;1.65;;
9330;SDS011;4704;50.470;12.072;2024-03-23T07:42:34;1.70;;;1.60;;
9330;SDS011;4704;50.470;12.072;2024-03-23T07:45:02;1.65;;;1.50;;
9330;SDS011;4704;50.470;12.072;2024-03-23T07:47:29;1.73;;;1.63;;
9330;SDS011;4704;50.470;12.072;2024-03-23T07:49:58;1.48;;;1.38;;
9330;SDS011;4704;50.470;12.072;2024-03-23T07:52:24;2.00;;;1.80;;
9330;SDS011;4704;50.470;12.072;2024-03-23T07:54:51;2.08;;;1.88;;
9330;SDS011;4704;50.470;12.072;2024-03-23T07:57:17;1.80;;;1.60;;
9330;SDS011;4704;50.470;12.072;2024-03-23T07:59:45;2.05;;;1.90;;
9330;SDS011;4704;50.470;12.072;2024-03-23T08:02:11;1.70;;;1.60;;
9330;SDS011;4704;50.470;12.072;2024-03-23T08:04:39;1.98;;;1.77;;
9330;SDS011;4704;50.470;12.072;2024-03-23T08:07:07;2.25;;;2.05;;
9330;SDS011;4704;50.470;12.072;2024-03-23T08:09:34;2.28;;;1.80;;
9330;SDS011;4704;50.470;12.072;2024-03-23T08:12:00;1.90;;;1.80;;
9330;SDS011;4704;50.470;12.072;2024-03-23T08:14:28;2.28;;;1.92;;
9330;SDS011;4704;50.470;12.072;2024-03-23T08:16:54;2.28;;;1.80;;
9330;SDS011;4704;50.470;12.072;2024-03-23T08:19:22;2.05;;;1.90;;
9330;SDS011;4704;50.470;12.072;2024-03-23T08:21:48;2.00;;;1.80;;
9330;SDS011;4704;50.470;12.072;2024-03-23T08:24:18;2.10;;;1.90;;
9330;SDS011;4704;50.470;12.072;2024-03-23T08:26:45;2.08;;;1.90;;
9330;SDS011;4704;50.470;12.072;2024-03-23T08:29:12;2.03;;;1.83;;
9330;SDS011;4704;50.470;12.072;2024-03-23T08:31:39;1.92;;;1.83;;
9330;SDS011;4704;50.470;12.072;2024-03-23T08:34:06;1.98;;;1.88;;
9330;SDS011;4704;50.470;12.072;2024-03-23T08:36:32;1.83;;;1.73;;
9330;SDS011;4704;50.470;12.072;2024-03-23T08:38:59;2.05;;;1.63;;
9330;SDS011;4704;50.470;12.072;2024-03-23T08:41:27;2.17;;;2.08;;
9330;SDS011;4704;50.470;12.072;2024-03-23T08:43:55;2.20;;;2.00;;
9330;SDS011;4704;50.470;12.072;2024-03-23T08:46:21;2.35;;;2.15;;
9330;SDS011;4704;50.470;12.072;2024-03-23T08:48:48;2.05;;;1.85;;
9330;SDS011;4704;50.470;12.072;2024-03-23T08:51:15;2.78;;;2.10;;
9330;SDS011;4704;50.470;12.072;2024-03-23T08:53:43;3.17;;;2.30;;
9330;SDS011;4704;50.470;12.072;2024-03-23T08:56:10;2.30;;;2.10;;
9330;SDS011;4704;50.470;12.072;2024-03-23T08:58:39;2.50;;;2.00;;
9330;SDS011;4704;50.470;12.072;2024-03-23T09:01:06;2.20;;;2.10;;
9330;SDS011;4704;50.470;12.072;2024-03-23T09:03:33;2.40;;;2.20;;
9330;SDS011;4704;50.470;12.072;2024-03-23T09:06:00;1.92;;;1.83;;
9330;SDS011;4704;50.470;12.072;2024-03-23T09:08:28;2.15;;;1.95;;
9330;SDS011;4704;50.470;12.072;2024-03-23T09:10:54;2.35;;;2.15;;
9330;SDS011;4704;50.470;12.072;2024-03-23T09:13:22;2.35;;;1.92;;
9330;SDS011;4704;50.470;12.072;2024-03-23T09:15:50;2.80;;;2.00;;
9330;SDS011;4704;50.470;12.072;2024-03-23T09:18:21;1.80;;;1.70;;
9330;SDS011;4704;50.470;12.072;2024-03-23T09:20:48;1.92;;;1.83;;
9330;SDS011;4704;50.470;12.072;2024-03-23T09:23:15;1.80;;;1.70;;
9330;SDS011;4704;50.470;12.072;2024-03-23T09:25:41;1.70;;;1.60;;
9330;SDS011;4704;50.470;12.072;2024-03-23T09:28:09;1.90;;;1.80;;
9330;SDS011;4704;50.470;12.072;2024-03-23T09:30:35;2.22;;;1.73;;
9330;SDS011;4704;50.470;12.072;2024-03-23T09:33:08;2.10;;;1.90;;
9330;SDS011;4704;50.470;12.072;2024-03-23T09:35:36;2.00;;;1.80;;
9330;SDS011;4704;50.470;12.072;2024-03-23T09:38:04;2.00;;;1.90;;
9330;SDS011;4704;50.470;12.072;2024-03-23T09:40:30;1.80;;;1.70;;
9330;SDS011;4704;50.470;12.072;2024-03-23T09:42:58;2.10;;;1.75;;
9330;SDS011;4704;50.470;12.072;2024-03-23T09:45:26;2.15;;;1.80;;
9330;SDS011;4704;50.470;12.072;2024-03-23T09:47:54;2.10;;;1.80;;
9330;SDS011;4704;50.470;12.072;2024-03-23T09:50:23;1.73;;;1.55;;
9330;SDS011;4704;50.470;12.072;2024-03-23T09:52:50;1.73;;;1.60;;
9330;SDS011;4704;50.470;12.072;2024-03-23T09:55:17;1.85;;;1.70;;
9330;SDS011;4704;50.470;12.072;2024-03-23T09:57:43;1.80;;;1.58;;
9330;SDS011;4704;50.470;12.072;2024-03-23T10:00:11;1.50;;;1.40;;
9330;SDS011;4704;50.470;12.072;2024-03-23T10:02:38;1.55;;;1.40;;
9330;SDS011;4704;50.470;12.072;2024-03-23T10:05:06;1.58;;;1.48;;
9330;SDS011;4704;50.470;12.072;2024-03-23T10:07:48;1.85;;;1.65;;
9330;SDS011;4704;50.470;12.072;2024-03-23T10:10:15;1.52;;;1.40;;
9330;SDS011;4704;50.470;12.072;2024-03-23T10:12:43;1.60;;;1.50;;
9330;SDS011;4704;50.470;12.072;2024-03-23T10:15:17;1.55;;;1.30;;
9330;SDS011;4704;50.470;12.072;2024-03-23T10:17:44;1.40;;;1.30;;
9330;SDS011;4704;50.470;12.072;2024-03-23T10:20:11;1.13;;;1.10;;
9330;SDS011;4704;50.470;12.072;2024-03-23T10:22:37;1.38;;;1.27;;
9330;SDS011;4704;50.470;12.072;2024-03-23T10:25:10;1.40;;;1.30;;
9330;SDS011;4704;50.470;12.072;2024-03-23T10:27:37;1.30;;;1.20;;
9330;SDS011;4704;50.470;12.072;2024-03-23T10:30:08;1.30;;;1.20;;
9330;SDS011;4704;50.470;12.072;2024-03-23T10:32:34;1.25;;;1.15;;
9330;SDS011;4704;50.470;12.072;2024-03-23T10:35:14;1.88;;;1.38;;
9330;SDS011;4704;50.470;12.072;2024-03-23T10:37:41;1.15;;;1.10;;
9330;SDS011;4704;50.470;12.072;2024-03-23T10:40:11;1.35;;;1.25;;
9330;SDS011;4704;50.470;12.072;2024-03-23T10:42:38;1.38;;;1.27;;
9330;SDS011;4704;50.470;12.072;2024-03-23T10:45:06;1.00;;;1.00;;
9330;SDS011;4704;50.470;12.072;2024-03-23T10:47:33;2.58;;;1.25;;
9330;SDS011;4704;50.470;12.072;2024-03-23T10:50:01;1.45;;;1.35;;
9330;SDS011;4704;50.470;12.072;2024-03-23T10:52:27;1.00;;;1.00;;
9330;SDS011;4704;50.470;12.072;2024-03-23T10:54:54;1.40;;;1.30;;
9330;SDS011;4704;50.470;12.072;2024-03-23T10:57:25;1.20;;;1.10;;
9330;SDS011;4704;50.470;12.072;2024-03-23T10:59:55;1.10;;;1.00;;
9330;SDS011;4704;50.470;12.072;2024-03-23T11:02:22;1.10;;;1.00;;
9330;SDS011;4704;50.470;12.072;2024-03-23T11:04:51;1.52;;;1.20;;
9330;SDS011;4704;50.470;12.072;2024-03-23T11:07:30;0.98;;;0.98;;
9330;SDS011;4704;50.470;12.072;2024-03-23T11:09:58;1.40;;;1.08;;
9330;SDS011;4704;50.470;12.072;2024-03-23T11:12:27;1.90;;;1.10;;
9330;SDS011;4704;50.470;12.072;2024-03-23T11:14:57;1.10;;;1.00;;
9330;SDS011;4704;50.470;12.072;2024-03-23T11:17:24;1.20;;;1.10;;
9330;SDS011;4704;50.470;12.072;2024-03-23T11:19:52;1.27;;;0.90;;
9330;SDS011;4704;50.470;12.072;2024-03-23T11:25:01;1.00;;;0.90;;
9330;SDS011;4704;50.470;12.072;2024-03-23T11:27:29;0.80;;;0.80;;
9330;SDS011;4704;50.470;12.072;2024-03-23T11:30:09;1.08;;;0.98;;
9330;SDS011;4704;50.470;12.072;2024-03-23T11:32:35;0.90;;;0.90;;
9330;SDS011;4704;50.470;12.072;2024-03-23T11:35:02;1.05;;;0.90;;
9330;SDS011;4704;50.470;12.072;2024-03-23T11:37:29;0.90;;;0.90;;
9330;SDS011;4704;50.470;12.072;2024-03-23T11:39:56;1.02;;;0.95;;
9330;SDS011;4704;50.470;12.072;2024-03-23T11:42:23;0.80;;;0.80;;
9330;SDS011;4704;50.470;12.072;2024-03-23T11:44:52;1.40;;;0.90;;
9330;SDS011;4704;50.470;12.072;2024-03-23T11:47:18;0.80;;;0.80;;
9330;SDS011;4704;50.470;12.072;2024-03-23T11:49:45;0.93;;;0.88;;
9330;SDS011;4704;50.470;12.072;2024-03-23T11:52:15;0.70;;;0.70;;
9330;SDS011;4704;50.470;12.072;2024-03-23T11:54:43;1.00;;;0.90;;
9330;SDS011;4704;50.470;12.072;2024-03-23T11:57:09;0.80;;;0.80;;
9330;SDS011;4704;50.470;12.072;2024-03-23T11:59:37;1.05;;;1.00;;
9330;SDS011;4704;50.470;12.072;2024-03-23T12:02:08;0.90;;;0.90;;
9330;SDS011;4704;50.470;12.072;2024-03-23T12:04:37;0.80;;;0.80;;
9330;SDS011;4704;50.470;12.072;2024-03-23T12:07:14;1.25;;;0.80;;
9330;SDS011;4704;50.470;12.072;2024-03-23T12:09:43;0.75;;;0.70;;
9330;SDS011;4704;50.470;12.072;2024-03-23T12:12:11;0.80;;;0.70;;
9330;SDS011;4704;50.470;12.072;2024-03-23T12:14:42;0.90;;;0.90;;
9330;SDS011;4704;50.470;12.072;2024-03-23T12:17:13;1.10;;;0.82;;
9330;SDS011;4704;50.470;12.072;2024-03-23T12:19:41;0.80;;;0.80;;
9330;SDS011;4704;50.470;12.072;2024-03-23T12:22:07;0.73;;;0.70;;
9330;SDS011;4704;50.470;12.072;2024-03-23T12:24:35;1.00;;;1.00;;
9330;SDS011;4704;50.470;12.072;2024-03-23T12:27:02;1.08;;;0.70;;
9330;SDS011;4704;50.470;12.072;2024-03-23T12:29:29;0.73;;;0.70;;
9330;SDS011;4704;50.470;12.072;2024-03-23T12:31:58;0.70;;;0.70;;
9330;SDS011;4704;50.470;12.072;2024-03-23T12:34:27;0.73;;;0.65;;
9330;SDS011;4704;50.470;12.072;2024-03-23T12:36:53;0.80;;;0.65;;
9330;SDS011;4704;50.470;12.072;2024-03-23T12:39:21;0.90;;;0.70;;
9330;SDS011;4704;50.470;12.072;2024-03-23T12:41:47;1.45;;;0.90;;
9330;SDS011;4704;50.470;12.072;2024-03-23T12:44:15;1.20;;;0.70;;
9330;SDS011;4704;50.470;12.072;2024-03-23T12:46:42;0.60;;;0.60;;
9330;SDS011;4704;50.470;12.072;2024-03-23T12:49:09;0.70;;;0.70;;
9330;SDS011;4704;50.470;12.072;2024-03-23T12:51:37;0.70;;;0.70;;
9330;SDS011;4704;50.470;12.072;2024-03-23T12:54:04;0.65;;;0.65;;
9330;SDS011;4704;50.470;12.072;2024-03-23T12:56:30;0.70;;;0.70;;
9330;SDS011;4704;50.470;12.072;2024-03-23T12:58:58;0.70;;;0.70;;
9330;SDS011;4704;50.470;12.072;2024-03-23T13:01:27;0.70;;;0.60;;
9330;SDS011;4704;50.470;12.072;2024-03-23T13:03:55;0.70;;;0.70;;
9330;SDS011;4704;50.470;12.072;2024-03-23T13:06:21;0.77;;;0.77;;
9330;SDS011;4704;50.470;12.072;2024-03-23T13:08:50;0.80;;;0.80;;
9330;SDS011;4704;50.470;12.072;2024-03-23T13:11:17;0.60;;;0.60;;
9330;SDS011;4704;50.470;12.072;2024-03-23T13:13:45;1.40;;;0.50;;
9330;SDS011;4704;50.470;12.072;2024-03-23T13:16:11;0.65;;;0.60;;
9330;SDS011;4704;50.470;12.072;2024-03-23T13:18:38;0.60;;;0.60;;
9330;SDS011;4704;50.470;12.072;2024-03-23T13:21:05;1.05;;;0.90;;
9330;SDS011;4704;50.470;12.072;2024-03-23T13:23:32;0.50;;;0.50;;
9330;SDS011;4704;50.470;12.072;2024-03-23T13:26:02;1.02;;;0.70;;
9330;SDS011;4704;50.470;12.072;2024-03-23T13:28:29;0.73;;;0.73;;
9330;SDS011;4704;50.470;12.072;2024-03-23T13:30:56;0.82;;;0.63;;
9330;SDS011;4704;50.470;12.072;2024-03-23T13:33:24;0.63;;;0.63;;
9330;SDS011;4704;50.470;12.072;2024-03-23T13:35:51;0.82;;;0.50;;
9330;SDS011;4704;50.470;12.072;2024-03-23T13:38:18;0.70;;;0.60;;
9330;SDS011;4704;50.470;12.072;2024-03-23T13:40:54;0.70;;;0.70;;
9330;SDS011;4704;50.470;12.072;2024-03-23T13:43:23;0.52;;;0.52;;
9330;SDS011;4704;50.470;12.072;2024-03-23T13:45:52;0.75;;;0.75;;
9330;SDS011;4704;50.470;12.072;2024-03-23T13:48:20;1.17;;;0.80;;
9330;SDS011;4704;50.470;12.072;2024-03-23T13:50:46;0.70;;;0.70;;
9330;SDS011;4704;50.470;12.072;2024-03-23T13:53:14;0.60;;;0.60;;
9330;SDS011;4704;50.470;12.072;2024-03-23T13:55:46;0.70;;;0.60;;
9330;SDS011;4704;50.470;12.072;2024-03-23T13:58:14;1.42;;;0.60;;
9330;SDS011;4704;50.470;12.072;2024-03-23T14:00:41;1.10;;;0.90;;
9330;SDS011;4704;50.470;12.072;2024-03-23T14:03:09;0.70;;;0.60;;
9330;SDS011;4704;50.470;12.072;2024-03-23T14:05:35;0.77;;;0.70;;
9330;SDS011;4704;50.470;12.072;2024-03-23T14:08:04;1.00;;;0.80;;
9330;SDS011;4704;50.470;12.072;2024-03-23T14:10:30;0.88;;;0.80;;
9330;SDS011;4704;50.470;12.072;2024-03-23T14:12:57;1.42;;;0.65;;
9330;SDS011;4704;50.470;12.072;2024-03-23T14:15:25;0.98;;;0.77;;
9330;SDS011;4704;50.470;12.072;2024-03-23T14:17:53;1.15;;;0.90;;
9330;SDS011;4704;50.470;12.072;2024-03-23T14:20:20;0.55;;;0.55;;
9330;SDS011;4704;50.470;12.072;2024-03-23T14:22:48;1.50;;;0.80;;
9330;SDS011;4704;50.470;12.072;2024-03-23T14:25:14;0.65;;;0.65;;
9330;SDS011;4704;50.470;12.072;2024-03-23T14:27:43;0.82;;;0.70;;
9330;SDS011;4704;50.470;12.072;2024-03-23T14:30:10;0.85;;;0.85;;
9330;SDS011;4704;50.470;12.072;2024-03-23T14:32:39;0.70;;;0.70;;
9330;SDS011;4704;50.470;12.072;2024-03-23T14:35:07;1.42;;;0.90;;
9330;SDS011;4704;50.470;12.072;2024-03-23T14:37:36;0.95;;;0.73;;
9330;SDS011;4704;50.470;12.072;2024-03-23T14:40:03;1.55;;;0.80;;
9330;SDS011;4704;50.470;12.072;2024-03-23T14:42:31;1.27;;;0.80;;
9330;SDS011;4704;50.470;12.072;2024-03-23T14:44:57;1.90;;;0.80;;
9330;SDS011;4704;50.470;12.072;2024-03-23T14:47:25;1.10;;;0.60;;
9330;SDS011;4704;50.470;12.072;2024-03-23T14:49:51;1.05;;;0.90;;
9330;SDS011;4704;50.470;12.072;2024-03-23T14:52:20;3.03;;;1.00;;
9330;SDS011;4704;50.470;12.072;2024-03-23T14:54:46;2.17;;;0.90;;
9330;SDS011;4704;50.470;12.072;2024-03-23T14:57:14;1.65;;;0.80;;
9330;SDS011;4704;50.470;12.072;2024-03-23T14:59:40;3.22;;;0.88;;
9330;SDS011;4704;50.470;12.072;2024-03-23T15:02:07;2.03;;;0.85;;
9330;SDS011;4704;50.470;12.072;2024-03-23T15:04:34;2.97;;;0.80;;
9330;SDS011;4704;50.470;12.072;2024-03-23T15:07:02;1.88;;;0.80;;
9330;SDS011;4704;50.470;12.072;2024-03-23T15:09:30;1.38;;;0.80;;
9330;SDS011;4704;50.470;12.072;2024-03-23T15:11:58;0.90;;;0.70;;
9330;SDS011;4704;50.470;12.072;2024-03-23T15:14:24;2.45;;;0.82;;
9330;SDS011;4704;50.470;12.072;2024-03-23T15:16:52;1.77;;;0.80;;
9330;SDS011;4704;50.470;12.072;2024-03-23T15:19:19;0.98;;;0.68;;
9330;SDS011;4704;50.470;12.072;2024-03-23T15:21:46;1.48;;;0.70;;
9330;SDS011;4704;50.470;12.072;2024-03-23T15:24:13;2.92;;;0.82;;
9330;SDS011;4704;50.470;12.072;2024-03-23T15:26:41;1.35;;;0.80;;
9330;SDS011;4704;50.470;12.072;2024-03-23T15:29:09;1.58;;;0.80;;
9330;SDS011;4704;50.470;12.072;2024-03-23T15:31:38;1.40;;;0.88;;
9330;SDS011;4704;50.470;12.072;2024-03-23T15:34:04;1.25;;;0.73;;
9330;SDS011;4704;50.470;12.072;2024-03-23T15:36:35;1.90;;;0.90;;
9330;SDS011;4704;50.470;12.072;2024-03-23T15:39:03;0.85;;;0.70;;
9330;SDS011;4704;50.470;12.072;2024-03-23T15:41:31;1.15;;;1.00;;
9330;SDS011;4704;50.470;12.072;2024-03-23T15:44:00;1.52;;;0.77;;
9330;SDS011;4704;50.470;12.072;2024-03-23T15:46:28;1.08;;;0.95;;
9330;SDS011;4704;50.470;12.072;2024-03-23T15:48:54;1.20;;;0.90;;
9330;SDS011;4704;50.470;12.072;2024-03-23T15:51:23;1.83;;;0.82;;
9330;SDS011;4704;50.470;12.072;2024-03-23T15:53:56;1.08;;;0.80;;
9330;SDS011;4704;50.470;12.072;2024-03-23T15:56:23;1.85;;;0.80;;
9330;SDS011;4704;50.470;12.072;2024-03-23T15:58:50;2.10;;;0.85;;